logo
Search for airport 
image banner adimage banner adimage banner ad
image banner ad

ESHAGE - Hagernas

Located in T, Sweden

ICAO - , IATA -

Data provided by Airmate  

General information

Coordinates: N59°26'53" E18°8'10"
Elevation is 26 feet MSL.
Magnetic variation is 7° East
View others Airports in Stockholms län

Operational data

Special qualification required
Current time UTC:
Current local time:
Weather at : ESSB - Stockholm/Bromma ( 15 km )
METAR: ESSB 200620Z 31009KT 7000 -SN BKN019 M00/M04 Q1010
TAF: TAF ESSB 200530Z 2006/2015 36007KT 9999 -SN SCT020 BKN040
View NOTAMs / SUP AIP / TFR affecting this airport [VIEW]
Communications frequencies: [VIEW]

Runways:

RWY identifierQFULength (ft)Width (ft)SurfaceLDA (ft)
0664°37320WATER
24244°37320WATER

Airport contact information

Address: T Sweden

Satellite view of ESHAGE